createdAt,value
2018-09-13T00:00:34.304Z,13.30
2018-09-13T00:08:40.332Z,13.20
2018-09-13T00:12:43.524Z,13.20
2018-09-13T00:20:49.537Z,13.20
2018-09-13T00:32:58.416Z,13.10
2018-09-13T00:37:01.556Z,13.10
2018-09-13T00:49:10.849Z,12.90
2018-09-13T00:57:16.836Z,12.90
2018-09-13T01:09:25.751Z,12.80
2018-09-13T01:37:46.184Z,12.30
2018-09-13T01:41:49.324Z,12.30
2018-09-13T01:49:55.504Z,12.20
2018-09-13T02:10:10.228Z,11.80
2018-09-13T02:18:16.224Z,11.60
2018-09-13T02:22:19.371Z,11.50
2018-09-13T02:30:25.377Z,11.40
2018-09-13T02:42:34.276Z,11.30
2018-09-13T02:46:38.348Z,11.20
2018-09-13T03:02:50.168Z,11.00
2018-09-13T03:06:53.278Z,11.00
2018-09-13T03:23:06.047Z,10.90
2018-09-13T03:31:12.059Z,10.90
2018-09-13T03:39:18.213Z,10.80
2018-09-13T03:47:24.429Z,10.70
2018-09-13T03:59:33.352Z,10.40
2018-09-13T04:11:42.259Z,10.30
2018-09-13T04:19:48.268Z,10.20
2018-09-13T04:27:54.292Z,10.10
2018-09-13T04:40:03.253Z,10.10
2018-09-13T04:52:12.427Z,10.00
2018-09-13T05:00:18.551Z,10.00
2018-09-13T05:04:21.598Z,9.90
2018-09-13T05:16:30.517Z,10.00
2018-09-13T05:28:39.540Z,9.90
2018-09-13T05:44:59.109Z,9.80
2018-09-13T05:49:02.320Z,9.50
2018-09-13T05:57:09.525Z,9.70
2018-09-13T06:13:22.165Z,9.80
2018-09-13T06:21:28.538Z,10.10
2018-09-13T06:33:38.155Z,10.40
2018-09-13T06:41:44.289Z,10.50
2018-09-13T06:45:47.369Z,10.50
2018-09-13T06:53:53.640Z,10.90
2018-09-13T07:10:05.511Z,11.50
2018-09-13T07:18:11.620Z,12.00
2018-09-13T07:30:20.623Z,12.60
2018-09-13T07:42:29.662Z,13.30
2018-09-13T07:58:41.632Z,14.10
2018-09-13T08:10:50.568Z,14.80
2018-09-13T08:22:59.593Z,15.30
2018-09-13T08:39:12.283Z,16.10
2018-09-13T08:43:15.564Z,16.10
2018-09-13T08:55:24.644Z,16.50
2018-09-13T09:03:31.103Z,16.70
2018-09-13T09:19:43.021Z,17.00
2018-09-13T09:31:51.942Z,16.60
2018-09-13T09:44:00.875Z,17.00
2018-09-13T09:56:10.062Z,17.60
2018-09-13T10:12:21.903Z,18.00
2018-09-13T10:54:42.307Z,18.70
2018-09-13T11:02:48.311Z,18.70
2018-09-13T11:10:54.633Z,19.00
2018-09-13T11:14:59.868Z,19.10
2018-09-13T11:51:26.268Z,19.50
2018-09-13T12:03:35.268Z,19.60
2018-09-13T12:19:47.208Z,20.00
2018-09-13T12:31:56.252Z,20.00
2018-09-13T12:44:05.144Z,20.30
2018-09-13T12:52:11.640Z,20.60
2018-09-13T13:08:23.522Z,20.20
2018-09-13T13:20:32.449Z,19.90
2018-09-13T13:32:41.336Z,19.60
2018-09-13T13:48:53.166Z,19.50
2018-09-13T14:01:02.253Z,19.30
2018-09-13T14:21:17.740Z,19.40
2018-09-13T14:25:20.892Z,19.50
2018-09-13T14:37:29.836Z,19.20
2018-09-13T14:45:35.930Z,18.90
2018-09-13T14:49:39.035Z,18.70
2018-09-13T14:57:45.165Z,18.60
2018-09-13T15:09:54.012Z,18.70
2018-09-13T15:13:57.172Z,18.60
2018-09-13T15:22:03.803Z,18.50
2018-09-13T15:30:09.800Z,18.30
2018-09-13T15:34:12.888Z,18.10
2018-09-13T15:50:25.031Z,18.00
2018-09-13T15:58:31.167Z,17.80
2018-09-13T16:10:40.052Z,17.70
2018-09-13T16:22:49.155Z,17.60
2018-09-13T16:51:31.589Z,17.30
2018-09-13T17:03:40.479Z,17.10
2018-09-13T17:15:49.671Z,17.10
2018-09-13T17:19:52.790Z,17.00
2018-09-13T17:32:01.826Z,16.80
2018-09-13T17:40:07.831Z,16.70
2018-09-13T17:52:16.753Z,16.60
2018-09-13T18:12:31.455Z,16.30
2018-09-13T18:24:40.571Z,15.80
2018-09-13T18:32:46.757Z,15.60
2018-09-13T18:44:55.663Z,15.30
2018-09-13T18:48:59.074Z,15.20
2018-09-13T18:57:05.747Z,15.00
2018-09-13T19:05:11.787Z,14.70
2018-09-13T19:13:18.687Z,14.60
2018-09-13T19:29:30.852Z,14.30
2018-09-13T19:37:37.038Z,14.20
2018-09-13T19:45:43.524Z,13.90
2018-09-13T19:49:46.663Z,13.80
2018-09-13T19:53:49.737Z,13.70
2018-09-13T19:57:52.860Z,13.60
2018-09-13T20:05:59.317Z,13.50
2018-09-13T20:10:02.384Z,13.50
2018-09-13T20:22:11.664Z,13.30
2018-09-13T20:30:17.800Z,13.30
2018-09-13T20:42:26.796Z,13.00
2018-09-13T20:50:32.932Z,12.90
2018-09-13T21:10:47.608Z,12.60
2018-09-13T21:18:53.603Z,12.50
2018-09-13T21:35:05.440Z,12.30
2018-09-13T21:47:15.156Z,12.10
2018-09-13T21:55:21.160Z,12.00
2018-09-13T21:59:24.280Z,11.90
2018-09-13T22:07:30.264Z,11.80
2018-09-13T22:19:39.085Z,11.70
2018-09-13T22:35:50.851Z,11.50
2018-09-13T22:39:53.984Z,11.50
2018-09-13T22:48:00.128Z,11.50
2018-09-13T23:00:08.963Z,11.50
2018-09-13T23:16:20.737Z,11.40
2018-09-13T23:28:29.620Z,11.30
2018-09-13T23:40:38.520Z,11.10
2018-09-13T23:52:47.561Z,11.10
